• Join FlightAware (Why Join?)
  • Login
  • US Flag 
03:36AM EDT


 

Airport Tracker/Info


-or-


 

Live Flight TrackerFlight Track Log ✈ THY2 ✈ 14-May-2013 ✈ KJFK - LTBA / IST

Flight Track Log - Related Links

Times and Time Zones

All times are in EDT time to prevent confusion due to time zone crossing. See the THY2 flight status page for this flight to view local times or setup timezone preferences in your user account.

Time Position Orientation Groundspeed Altitude Reporting Facility
EDT Latitude Longitude Course Direction KTS MPH feet Rate Location/Type
12:39AM 40.6330 -73.7830 123° Southeast 196 226  Level FlightAware
12:39AM 40.6230 -73.7590 119° Southeast 207 238 800 1,920 Climbing FlightAware
12:39AM 40.6190 -73.7380 104° East 215 247 1,300 1,320 Climbing FlightAware
12:40AM 40.6170 -73.7050 95° East 243 280 1,700 1,080 Climbing FlightAware
12:40AM 40.6310 -73.6620 67° East 267 307 2,300 1,440 Climbing FlightAware
12:40AM 40.6440 -73.6430 48° Northeast 271 312 2,800 2,400 Climbing FlightAware
12:41AM 40.6690 -73.6070 48° Northeast 272 313 4,100 2,460 Climbing FlightAware
12:41AM 40.6900 -73.5770 47° Northeast 273 314 5,100 2,280 Climbing FlightAware
12:42AM 40.7160 -73.5400 47° Northeast 276 318 6,200 2,220 Climbing FlightAware
12:42AM 40.7340 -73.5250 32° Northeast 276 318 6,800 2,400 Climbing FlightAware
12:43AM 40.7620 -73.5140 17° North 271 312 7,800 2,280 Climbing FlightAware
12:43AM 40.7980 -73.5040 12° North 271 312 8,900 2,160 Climbing FlightAware
12:43AM 40.8320 -73.4940 13° North 277 319 9,800 1,800 Climbing FlightAware
12:44AM 40.8880 -73.4790 11° North 301 346 11,000 1,440 Climbing FlightAware
12:45AM 40.9416 -73.4646 11° North 335 386 11,700 1,440 Climbing FlightAware ADS-B
12:45AM 40.9905 -73.4511 12° North 361 415 12,600 2,340 Climbing FlightAware ADS-B
12:46AM 41.0441 -73.4361 12° North 366 421 14,200 2,820 Climbing FlightAware ADS-B
12:46AM 41.0953 -73.4217 12° North 373 429 15,600 2,640 Climbing FlightAware ADS-B
12:47AM 41.1471 -73.4073 12° North 377 434 16,900 2,760 Climbing FlightAware ADS-B
12:47AM 41.1988 -73.3930 12° North 378 435 18,400 3,120 Climbing FlightAware ADS-B
12:48AM 41.2501 -73.3785 12° North 367 422 20,100 2,700 Climbing FlightAware ADS-B
12:48AM 41.3011 -73.3642 12° North 373 429 21,200 2,100 Climbing FlightAware ADS-B
12:49AM 41.3149 -73.3608 10° North 370 426 21,500 2,100 Climbing FlightAware ADS-B
12:49AM 41.3662 -73.3566 North 369 425 22,600 1,980 Climbing FlightAware ADS-B
12:50AM 41.4187 -73.3530 North 378 435 23,500 1,860 Climbing FlightAware ADS-B
12:50AM 41.4717 -73.3475 North 383 441 24,500 1,860 Climbing FlightAware ADS-B
12:50AM 41.5018 -73.3442 North 385 443 25,000 1,740 Climbing FlightAware ADS-B
12:51AM 41.5557 -73.3404 North 388 447 25,900 1,620 Climbing FlightAware ADS-B
12:51AM 41.6103 -73.3369 North 394 453 26,700 1,560 Climbing FlightAware ADS-B
12:52AM 41.6656 -73.3330 North 399 459 27,500 1,560 Climbing FlightAware ADS-B
12:52AM 41.7218 -73.3292 North 403 464 28,300 1,560 Climbing FlightAware ADS-B
12:53AM 41.7778 -73.3253 North 405 466 29,100 1,620 Climbing FlightAware ADS-B
12:53AM 41.8356 -73.3214 North 406 467 30,000 1,440 Climbing FlightAware ADS-B
12:54AM 41.8926 -73.3174 North 409 471 30,600 1,380 Climbing FlightAware ADS-B
12:54AM 41.9645 -73.3125 North 410 472 31,600 1,440 Climbing FlightAware ADS-B
12:55AM 42.0650 -73.3060 North 406 467 32,900 840 Climbing FlightAware
12:56AM 42.1450 -73.3000 North 404 465 33,000 60 Climbing FlightAware
12:57AM 42.2200 -73.2770 13° North 420 483 33,000  Level FlightAware
12:57AM 42.2860 -73.2250 30° Northeast 443 510 33,000  Level FlightAware
12:58AM 42.3540 -73.1510 39° Northeast 443 510 33,000  Level FlightAware
12:59AM 42.4210 -73.0770 39° Northeast 444 511 33,000  Level FlightAware
01:00AM 42.4990 -72.9980 37° Northeast 438 504 33,000  Level FlightAware
01:00AM 42.5670 -72.9340 35° Northeast 437 503 33,000  Level FlightAware
01:01AM 42.6310 -72.8750 34° Northeast 439 505 33,000  Level FlightAware
01:02AM 42.7070 -72.8040 34° Northeast 440 506 33,000  Level FlightAware
01:02AM 42.7750 -72.7400 35° Northeast 441 507 33,000  Level FlightAware
01:03AM 42.8510 -72.6690 34° Northeast 439 505 33,000  Level FlightAware
01:04AM 42.9190 -72.6040 35° Northeast 438 504 33,000  Level FlightAware
01:04AM 42.9850 -72.5410 35° Northeast 438 504 33,000  Level FlightAware
01:05AM 43.0580 -72.4720 35° Northeast 438 504 33,000  Level FlightAware
01:06AM 43.1240 -72.4090 35° Northeast 436 502 33,000  Level FlightAware
01:07AM 43.2000 -72.3360 35° Northeast 437 503 33,000  Level FlightAware
01:07AM 43.2670 -72.2720 35° Northeast 438 504 33,000  Level FlightAware
01:08AM 43.3340 -72.2080 35° Northeast 441 507 33,000  Level FlightAware
01:09AM 43.4090 -72.1360 35° Northeast 445 512 33,000  Level FlightAware
01:09AM 43.4740 -72.0720 36° Northeast 446 513 33,000  Level FlightAware
01:10AM 43.5530 -71.9960 35° Northeast 448 516 33,000  Level FlightAware
01:11AM 43.6200 -71.9300 35° Northeast 451 519 33,000  Level FlightAware
01:11AM 43.6900 -71.8630 35° Northeast 456 525 33,000  Level FlightAware
01:12AM 43.7580 -71.7960 35° Northeast 459 528 33,000  Level FlightAware
01:13AM 43.8350 -71.7200 35° Northeast 459 528 33,000  Level FlightAware
01:14AM 43.9040 -71.6520 35° Northeast 460 529 33,000  Level FlightAware
01:14AM 43.9730 -71.5840 35° Northeast 460 529 33,000  Level FlightAware
01:15AM 44.0530 -71.5040 36° Northeast 458 527 33,000  Level FlightAware
01:16AM 44.1220 -71.4360 35° Northeast 459 528 33,000  Level FlightAware
01:16AM 44.2070 -71.3520 35° Northeast 456 525 33,000  Level FlightAware
01:17AM 44.2760 -71.2830 36° Northeast 455 524 33,000  Level FlightAware
01:18AM 44.3440 -71.2140 36° Northeast 459 528 33,000  Level FlightAware
01:18AM 44.4140 -71.1440 36° Northeast 459 528 33,000  Level FlightAware
01:19AM 44.5010 -71.0550 36° Northeast 462 532 33,000  Level FlightAware
01:20AM 44.5840 -70.9720 35° Northeast 464 534 33,000  Level FlightAware
01:21AM 44.6620 -70.8920 36° Northeast 466 536 33,000  Level FlightAware
01:21AM 44.7100 -70.8430 36° Northeast 466 536 33,000  Level FlightAware
01:22AM 44.8110 -70.7400 36° Northeast 468 539 33,000  Level FlightAware
01:23AM 44.8810 -70.6680 36° Northeast 468 539 33,000  Level FlightAware
01:24AM 44.9650 -70.5820 36° Northeast 468 539 33,000  Level FlightAware
01:25AM 45.0540 -70.4890 36° Northeast 471 542 33,000  Level FlightAware
01:25AM 45.1230 -70.4180 36° Northeast 474 545 33,000  Level FlightAware
01:26AM 45.1940 -70.3440 36° Northeast 476 548 33,000  Level FlightAware
01:27AM 45.2740 -70.2610 36° Northeast 477 549 33,000  Level FlightAware
01:27AM 45.3450 -70.1860 37° Northeast 477 549 33,000  Level FlightAware
01:28AM 45.4240 -70.1030 36° Northeast 476 548 33,000  Level FlightAware
01:29AM 45.4950 -70.0270 37° Northeast 474 545 33,000  Level FlightAware
01:29AM 45.5640 -69.9540 37° Northeast 475 547 33,000  Level FlightAware
01:30AM 45.6450 -69.8690 36° Northeast 477 549 33,000  Level FlightAware
01:31AM 45.7150 -69.7940 37° Northeast 480 552 33,000  Level FlightAware
01:32AM 45.7870 -69.7170 37° Northeast 483 556 33,000  Level FlightAware
01:32AM 45.8660 -69.6320 37° Northeast 484 557 33,000  Level FlightAware
01:33AM 45.9390 -69.5540 37° Northeast 487 560 33,000  Level FlightAware
01:34AM 46.0190 -69.4670 37° Northeast 489 563 33,000  Level FlightAware
01:34AM 46.0920 -69.3880 37° Northeast 494 568 33,000  Level FlightAware
01:35AM 46.1740 -69.2990 37° Northeast 494 568 33,000  Level FlightAware
01:36AM 46.2460 -69.2200 37° Northeast 494 568 33,000  Level FlightAware
01:36AM 46.3190 -69.1400 37° Northeast 494 568 33,000  Level FlightAware
01:37AM 46.4000 -69.0500 37° Northeast 493 567 33,000  Level FlightAware
01:38AM 46.4720 -68.9710 37° Northeast 493 567 33,000  Level FlightAware
01:39AM 46.5450 -68.8900 37° Northeast 494 568 33,000  Level FlightAware
01:39AM 46.6270 -68.8000 37° Northeast 496 571 33,000  Level FlightAware
01:40AM 46.6980 -68.7190 38° Northeast 497 572 33,000  Level FlightAware
01:41AM 46.7810 -68.6260 37° Northeast 497 572 33,000  Level FlightAware
01:41AM 46.8550 -68.5440 37° Northeast 499 574 33,000  Level FlightAware
01:42AM 46.9290 -68.4600 38° Northeast 501 577 33,000  Level FlightAware
01:43AM 47.0110 -68.3670 38° Northeast 502 578 33,000  Level FlightAware
01:43AM 47.0840 -68.2840 38° Northeast 498 573 33,000  Level FlightAware
01:44AM 47.1470 -68.2120 38° Northeast 498 573 33,000  Level FlightAware
01:45AM 47.2270 -68.1220 37° Northeast 498 573 33,000  Level FlightAware
01:45AM 46.9000 -68.4930 218° Southwest 33,000  Level FlightAware
01:46AM 47.3560 -67.9720 38° Northeast 504 580 33,000  Level FlightAware
01:47AM 47.3650 -67.9620 37° Northeast 504 580 33,000  Level FlightAware
01:47AM 47.4240 -67.8930 38° Northeast 504 580 33,000  Level FlightAware
01:48AM 47.5020 -67.8030 38° Northeast 504 580 33,000  Level FlightAware
01:49AM 47.5650 -67.7310 38° Northeast 504 580 33,000  Level FlightAware
01:49AM 47.6270 -67.6580 38° Northeast 504 580 33,000  Level FlightAware
01:50AM 47.6900 -67.5860 38° Northeast 504 580 33,000  Level FlightAware
01:51AM 47.7680 -67.4950 38° Northeast 504 580 33,000  Level FlightAware
01:52AM 47.8300 -67.4220 38° Northeast 504 580 33,000  Level FlightAware
01:52AM 47.8930 -67.3500 37° Northeast 504 580 33,000  Level FlightAware
01:53AM 47.9550 -67.2770 38° Northeast 504 580 33,000  Level FlightAware
01:54AM 48.0180 -67.2040 38° Northeast 504 580 33,000  Level FlightAware
01:54AM 48.0800 -67.1310 38° Northeast 504 580 33,000  Level FlightAware
01:55AM 48.1580 -67.0390 38° Northeast 504 580 33,000  Level FlightAware
01:56AM 48.2210 -66.9660 38° Northeast 504 580 33,000  Level FlightAware
01:56AM 48.2830 -66.8930 38° Northeast 504 580 33,000  Level FlightAware
01:57AM 48.6500 -66.6000 38° Northeast 520 598 33,000  Level Moncton Center
01:58AM 48.7667 -66.4833 33° Northeast 520 598 33,000  Level Moncton Center
01:59AM 48.8833 -66.3333 40° Northeast 520 598 33,000  Level Moncton Center
02:00AM 49.0000 -66.2167 33° Northeast 520 598 33,000  Level Moncton Center
02:01AM 49.1333 -66.0833 33° Northeast 520 598 33,000  Level Moncton Center
02:02AM 49.2500 -65.9667 33° Northeast 520 598 33,000  Level Moncton Center
02:03AM 49.3667 -65.8167 40° Northeast 530 610 33,000  Level Moncton Center
02:04AM 49.4833 -65.6833 37° Northeast 530 610 33,000  Level Moncton Center
02:05AM 49.6000 -65.5667 33° Northeast 530 610 33,000  Level Moncton Center
02:06AM 49.7167 -65.4333 36° Northeast 530 610 33,000  Level Moncton Center
02:07AM 49.7833 -65.3500 39° Northeast 540 621 33,000  Level Gander Center
02:08AM 49.9167 -65.2000 36° Northeast 540 621 33,000  Level Gander Center
02:09AM 50.0167 -65.0833 37° Northeast 530 610 33,000  Level Gander Center
02:10AM 50.1500 -64.9333 36° Northeast 530 610 33,000  Level Gander Center
02:11AM 50.2667 -64.7833 39° Northeast 540 621 33,000  Level Gander Center
02:12AM 50.3833 -64.6333 39° Northeast 550 633 33,000  Level Gander Center
02:13AM 50.5167 -64.5167 29° Northeast 550 633 33,000  Level Gander Center
02:14AM 50.6500 -64.3667 35° Northeast 550 633 33,000  Level Gander Center
02:14AM 50.7000 -64.2833 47° Northeast 560 644 33,000  Level Moncton Center
02:15AM 50.8167 -64.1667 32° Northeast 560 644 33,000  Level Moncton Center
02:16AM 50.8833 -64.0667 43° Northeast 560 644 33,000  Level Gander Center
02:17AM 51.0167 -63.9167 35° Northeast 560 644 33,000  Level Gander Center
02:17AM 51.0667 -63.8667 32° Northeast 560 644 33,000  Level Moncton Center
02:18AM 51.1333 -63.7667 43° Northeast 560 644 33,000  Level Gander Center
02:19AM 51.2667 -63.6000 38° Northeast 560 644 33,000  Level Gander Center
02:19AM 51.3167 -63.5333 40° Northeast 560 644 33,000  Level Moncton Center
02:20AM 51.3833 -63.4500 38° Northeast 560 644 33,000  Level Gander Center
02:21AM 51.5000 -63.3000 39° Northeast 560 644 33,000  Level Gander Center
02:21AM 51.5667 -63.2333 32° Northeast 570 656 33,000  Level Moncton Center
02:22AM 51.6333 -63.1333 43° Northeast 570 656 33,000  Level Gander Center
02:23AM 51.7667 -62.9833 35° Northeast 570 656 33,000  Level Gander Center
02:24AM 51.8833 -62.8333 38° Northeast 570 656 33,000  Level Gander Center
02:25AM 52.0167 -62.6667 38° Northeast 580 667 33,000  Level Gander Center
02:25AM 52.0667 -62.6000 39° Northeast 580 667 33,000  Level Moncton Center
02:26AM 52.1333 -62.5000 43° Northeast 580 667 33,000  Level Gander Center
02:27AM 52.2500 -62.3500 38° Northeast 580 667 33,000  Level Gander Center
02:28AM 52.3833 -62.1833 37° Northeast 580 667 33,000  Level Gander Center
02:29AM 52.5167 -62.0167 37° Northeast 590 679 33,000  Level Gander Center
02:30AM 52.6667 -61.8333 37° Northeast 590 679 33,000  Level Gander Center
02:31AM 52.7833 -61.6667 41° Northeast 590 679 33,000  Level Gander Center
02:32AM 52.9167 -61.5000 37° Northeast 590 679 33,000  Level Gander Center
02:33AM 53.0333 -61.3167 43° Northeast 590 679 33,000  Level Gander Center
02:34AM 53.1500 -61.1167 46° Northeast 590 679 33,000  Level Gander Center
02:35AM 53.2667 -60.9167 46° Northeast 590 679 33,000  Level Gander Center
02:36AM 53.3833 -60.7500 40° Northeast 590 679 33,000  Level Gander Center
02:37AM 53.5000 -60.5500 46° Northeast 590 679 33,000  Level Gander Center
02:38AM 53.6167 -60.3500 45° Northeast 590 679 33,000  Level Gander Center
02:39AM 53.7333 -60.1833 40° Northeast 590 679 33,000  Level Gander Center
02:40AM 53.8500 -59.9500 50° Northeast 590 679 33,000  Level Gander Center
02:41AM 53.9667 -59.7833 40° Northeast 590 679 33,000  Level Gander Center
02:42AM 54.0833 -59.5667 47° Northeast 590 679 33,000  Level Gander Center
02:43AM 54.2000 -59.3667 45° Northeast 590 679 33,000  Level Gander Center
02:44AM 54.3167 -59.1833 42° Northeast 590 679 33,000  Level Gander Center
02:45AM 54.4333 -58.9833 45° Northeast 590 679 33,000  Level Gander Center
02:45AM 54.5000 -58.8333 53° Northeast 590 679 33,000  Level Gander Center
02:46AM 54.5333 -58.7833 41° Northeast 590 679 33,000  Level Gander Center
02:47AM 54.6500 -58.5667 47° Northeast 590 679 33,000  Level Gander Center
02:48AM 54.7667 -58.3500 47° Northeast 590 679 33,000  Level Gander Center
02:49AM 54.9000 -58.1500 41° Northeast 590 679 33,000  Level Gander Center
02:50AM 54.9833 -57.9667 52° Northeast 590 679 33,000  Level Gander Center
02:51AM 55.1000 -57.7500 47° Northeast 590 679 33,000  Level Gander Center
02:52AM 55.2333 -57.5333 43° Northeast 590 679 33,000  Level Gander Center
02:53AM 55.3167 -57.3167 56° Northeast 590 679 33,000  Level Gander Center
02:54AM 55.4500 -57.1000 43° Northeast 590 679 33,000  Level Gander Center
02:55AM 55.5333 -56.8833 56° Northeast 590 679 33,000  Level Gander Center
02:56AM 55.6000 -56.6167 66° East 570 656 33,000  Level Gander Center
02:57AM 55.6500 -56.3667 70° East 570 656 33,000  Level Gander Center
02:58AM 55.7167 -56.0833 67° East 570 656 33,000  Level Gander Center
02:59AM 55.7667 -55.8500 69° East 570 656 33,000  Level Gander Center
03:00AM 55.8333 -55.5667 67° East 580 667 33,000  Level Gander Center
03:01AM 55.9000 -55.2833 67° East 580 667 33,000  Level Gander Center
03:02AM 55.9500 -55.0500 69° East 580 667 33,000  Level Gander Center
03:03AM 56.0000 -54.7667 72° East 590 679 33,000  Level Gander Center
03:03AM 56.0500 -54.6167 59° Northeast 580 667 33,000  Level Gander Center
03:04AM 56.0667 -54.5167 73° East 580 667 33,000  Level Gander Center
03:04AM 56.1000 -54.3333 72° East 580 667 33,000  Level Gander Center
03:05AM 56.1667 -54.0833 64° Northeast 580 667 33,000  Level Gander Center
03:06AM 56.2000 -53.9833 59° Northeast 580 667 33,000  Level Gander Center
03:07AM 56.2500 -53.7000 72° East 580 667 33,000  Level Gander Center
03:08AM 56.3000 -53.4167 72° East 580 667 33,000  Level Gander Center
03:09AM 56.3667 -53.1667 64° Northeast 580 667 33,000  Level Gander Center
03:10AM 56.4167 -52.8833 72° East 580 667 33,000  Level Gander Center
03:11AM 56.4833 -52.6000 67° East 580 667 33,000  Level Gander Center
03:12AM 56.5167 -52.3333 77° East 580 667 33,000  Level Gander Center
03:12AM 56.5667 -52.1833 59° Northeast 580 667 33,000  Level Gander Center
03:13AM 56.6333 -51.8833 68° East 580 667 33,000  Level Gander Center
03:15AM 56.6885 -51.6112 70° East  Level FlightAware Approximate
03:22AM 57.0260 -49.8912 66° East  Level FlightAware Approximate
03:23AM 57.0829 -49.6505 66° East  Level FlightAware Approximate
03:24AM 57.1394 -49.4091 67° East  Level FlightAware Approximate
03:25AM 57.1954 -49.1669 67° East  Level FlightAware Approximate
03:26AM 57.2510 -48.9240 67° East  Level FlightAware Approximate
03:27AM 57.3061 -48.6804 67° East  Level FlightAware Approximate
03:28AM 57.3647 -48.4393 65° Northeast  Level FlightAware Approximate
03:29AM 57.4238 -48.1982 65° Northeast  Level FlightAware Approximate
03:30AM 57.4825 -47.9562 66° East  Level FlightAware Approximate
03:31AM 57.5407 -47.7136 66° East  Level FlightAware Approximate
03:32AM 57.5984 -47.4701 66° East  Level FlightAware Approximate
03:33AM 57.6554 -47.2257 68° East  Level FlightAware Approximate
03:34AM 57.7095 -46.9786 68° East  Level FlightAware Approximate
03:35AM 57.7631 -46.7307 68° East  Level FlightAware Approximate
03:36AM 57.8162 -46.4822 68° East  Level FlightAware Approximate
03:37AM 57.8689 -46.2329 68° East  Level FlightAware Approximate
03:38AM 57.9210 -45.9829 68° East  Level FlightAware Approximate
03:39AM 57.9727 -45.7321 69° East  Level FlightAware Approximate
03:40AM 58.0239 -45.4807 69° East  Level FlightAware Approximate
03:41AM 58.0745 -45.2285 69° East  Level FlightAware Approximate
03:42AM 58.1247 -44.9756 69° East  Level FlightAware Approximate
03:43AM 58.1744 -44.7220 70° East  Level FlightAware Approximate
03:44AM 58.2235 -44.4677 70° East  Level FlightAware Approximate
03:45AM 58.2728 -44.2130 70° East  Level FlightAware Approximate
03:46AM 58.3217 -43.9578 70° East  Level FlightAware Approximate
03:47AM 58.3701 -43.7019 70° East  Level FlightAware Approximate
03:48AM 58.4179 -43.4453 70° East  Level FlightAware Approximate
03:49AM 58.4653 -43.1880 71° East  Level FlightAware Approximate
03:50AM 58.5121 -42.9300 71° East  Level FlightAware Approximate
03:51AM 58.5585 -42.6713 71° East  Level FlightAware Approximate
03:52AM 58.6043 -42.4120 71° East  Level FlightAware Approximate
03:53AM 58.6496 -42.1519 71° East  Level FlightAware Approximate
03:54AM 58.6943 -41.8912 72° East  Level FlightAware Approximate
03:55AM 58.7385 -41.6298 72° East  Level FlightAware Approximate
03:56AM 58.7822 -41.3678 72° East  Level FlightAware Approximate
03:57AM 58.8254 -41.1051 72° East  Level FlightAware Approximate
03:58AM 58.8680 -40.8417 73° East  Level FlightAware Approximate
03:59AM 58.9101 -40.5778 73° East  Level FlightAware Approximate
04:00AM 58.9517 -40.3131 73° East  Level FlightAware Approximate
04:01AM 58.9927 -40.0479 73° East  Level FlightAware Approximate
04:02AM 59.0076 -39.7732 86° East  Level FlightAware Approximate
04:03AM 59.0163 -39.4965 86° East  Level FlightAware Approximate
04:04AM 59.0244 -39.2196 87° East  Level FlightAware Approximate
04:05AM 59.0320 -38.9426 87° East  Level FlightAware Approximate
04:06AM 59.0389 -38.6655 87° East  Level FlightAware Approximate
04:07AM 59.0453 -38.3882 87° East  Level FlightAware Approximate
04:08AM 59.0511 -38.1109 88° East  Level FlightAware Approximate
04:09AM 59.0562 -37.8335 88° East  Level FlightAware Approximate
04:10AM 59.0608 -37.5560 88° East  Level FlightAware Approximate
04:11AM 59.0648 -37.2785 88° East  Level FlightAware Approximate
04:12AM 59.0690 -37.0009 88° East  Level FlightAware Approximate
04:13AM 59.0734 -36.7233 88° East  Level FlightAware Approximate
04:14AM 59.0773 -36.4456 88° East  Level FlightAware Approximate
04:15AM 59.0806 -36.1679 89° East  Level FlightAware Approximate
04:16AM 59.0832 -35.8901 89° East  Level FlightAware Approximate
04:17AM 59.0853 -35.6123 89° East  Level FlightAware Approximate
04:18AM 59.0868 -35.3344 89° East  Level FlightAware Approximate
04:19AM 59.0877 -35.0566 90° East  Level FlightAware Approximate
04:20AM 59.0880 -34.7787 90° East  Level FlightAware Approximate
04:21AM 59.0877 -34.5008 90° East  Level FlightAware Approximate
04:22AM 59.0868 -34.2230 90° East  Level FlightAware Approximate
04:23AM 59.0853 -33.9451 90° East  Level FlightAware Approximate
04:24AM 59.0833 -33.6673 91° East  Level FlightAware Approximate
04:25AM 59.0806 -33.3895 91° East  Level FlightAware Approximate
04:26AM 59.0773 -33.1118 91° East  Level FlightAware Approximate
04:27AM 59.0735 -32.8341 91° East  Level FlightAware Approximate
04:28AM 59.0690 -32.5565 92° East  Level FlightAware Approximate
04:29AM 59.0640 -32.2790 92° East  Level FlightAware Approximate
04:30AM 59.0583 -32.0016 92° East  Level FlightAware Approximate
04:31AM 59.0521 -31.7242 92° East  Level FlightAware Approximate
04:32AM 59.0453 -31.4470 93° East  Level FlightAware Approximate
04:33AM 59.0379 -31.1699 93° East  Level FlightAware Approximate
04:34AM 59.0299 -30.8929 93° East  Level FlightAware Approximate
04:35AM 59.0213 -30.6160 93° East  Level FlightAware Approximate
04:36AM 59.0121 -30.3393 94° East  Level FlightAware Approximate
04:37AM 59.0023 -30.0627 94° East  Level FlightAware Approximate
04:38AM 58.9683 -29.7948 107° East  Level FlightAware Approximate
04:39AM 58.9267 -29.5301 107° East  Level FlightAware Approximate
04:40AM 58.8847 -29.2659 107° East  Level FlightAware Approximate
04:41AM 58.8420 -29.0025 107° East  Level FlightAware Approximate
04:42AM 58.7989 -28.7396 107° East  Level FlightAware Approximate
04:43AM 58.7552 -28.4774 108° East  Level FlightAware Approximate
04:44AM 58.7110 -28.2159 108° East  Level FlightAware Approximate
04:45AM 58.6663 -27.9551 108° East  Level FlightAware Approximate
04:46AM 58.6210 -27.6949 108° East  Level FlightAware Approximate
04:47AM 58.5752 -27.4354 109° East  Level FlightAware Approximate
04:48AM 58.5289 -27.1766 109° East  Level FlightAware Approximate
04:49AM 58.4826 -26.9182 109° East  Level FlightAware Approximate
04:50AM 58.4364 -26.6600 109° East  Level FlightAware Approximate
04:51AM 58.3897 -26.4024 109° East  Level FlightAware Approximate
04:52AM 58.3424 -26.1456 109° East  Level FlightAware Approximate
04:53AM 58.2947 -25.8894 109° East  Level FlightAware Approximate
04:54AM 58.2465 -25.6339 110° East  Level FlightAware Approximate
04:55AM 58.1977 -25.3792 110° East  Level FlightAware Approximate
04:56AM 58.1485 -25.1251 110° East  Level FlightAware Approximate
04:57AM 58.0987 -24.8717 110° East  Level FlightAware Approximate
04:58AM 58.0485 -24.6191 111° Southeast  Level FlightAware Approximate
04:59AM 57.9977 -24.3672 111° Southeast  Level FlightAware Approximate
05:00AM 57.9464 -24.1160 111° Southeast  Level FlightAware Approximate
05:01AM 57.8940 -23.8659 111° Southeast  Level FlightAware Approximate
05:02AM 57.8412 -23.6166 112° Southeast  Level FlightAware Approximate
05:03AM 57.7879 -23.3680 112° Southeast  Level FlightAware Approximate
05:04AM 57.7341 -23.1201 112° Southeast  Level FlightAware Approximate
05:05AM 57.6798 -22.8730 112° Southeast  Level FlightAware Approximate
05:06AM 57.6250 -22.6267 112° Southeast  Level FlightAware Approximate
05:07AM 57.5697 -22.3810 113° Southeast  Level FlightAware Approximate
05:08AM 57.5140 -22.1362 113° Southeast  Level FlightAware Approximate
05:09AM 57.4578 -21.8920 113° Southeast  Level FlightAware Approximate
05:10AM 57.4011 -21.6486 113° Southeast  Level FlightAware Approximate
05:11AM 57.3440 -21.4060 113° Southeast  Level FlightAware Approximate
05:12AM 57.2864 -21.1642 114° Southeast  Level FlightAware Approximate
05:13AM 57.2283 -20.9230 114° Southeast  Level FlightAware Approximate
05:14AM 57.1698 -20.6827 114° Southeast  Level FlightAware Approximate
05:15AM 57.1108 -20.4431 114° Southeast  Level FlightAware Approximate
05:16AM 57.0514 -20.2043 115° Southeast  Level FlightAware Approximate
05:17AM 56.9940 -19.9645 107° East  Level FlightAware Approximate
05:18AM 56.9518 -19.7143 107° East  Level FlightAware Approximate
05:19AM 56.9090 -19.4647 107° East  Level FlightAware Approximate
05:20AM 56.8658 -19.2157 108° East  Level FlightAware Approximate
05:21AM 56.8220 -18.9672 108° East  Level FlightAware Approximate
05:22AM 56.7778 -18.7194 108° East  Level FlightAware Approximate
05:23AM 56.7330 -18.4721 108° East  Level FlightAware Approximate
05:24AM 56.6878 -18.2254 108° East  Level FlightAware Approximate
05:25AM 56.6421 -17.9793 109° East  Level FlightAware Approximate
05:25AM 55.6110 -13.0740 109° East 564 649 35,000  Level FlightAware
05:26AM 56.5959 -17.7338 109° East  Level FlightAware Approximate
05:26AM 55.5700 -12.9620 123° Southeast 561 646 35,000  Level FlightAware
05:27AM 55.5120 -12.8030 123° Southeast 557 641 35,000  Level FlightAware
05:28AM 55.4140 -12.5370 123° Southeast 555 639 35,000  Level FlightAware
05:29AM 55.3540 -12.3760 123° Southeast 552 635 35,000  Level FlightAware
05:29AM 55.2970 -12.2250 124° Southeast 550 633 35,000  Level FlightAware
05:30AM 55.2340 -12.0590 124° Southeast 549 632 35,000  Level FlightAware
05:31AM 55.1610 -11.8670 124° Southeast 550 633 35,000  Level FlightAware
05:32AM 55.1020 -11.7130 124° Southeast 546 628 35,000  Level FlightAware
05:32AM 55.0390 -11.5510 124° Southeast 534 615 35,000  Level FlightAware
05:33AM 54.9820 -11.4040 124° Southeast 532 612 35,000  Level FlightAware
05:34AM 54.9270 -11.2640 124° Southeast 533 613 35,000  Level FlightAware
05:34AM 54.8640 -11.1040 124° Southeast 535 616 35,000  Level FlightAware
05:35AM 54.8080 -10.9630 125° Southeast 534 615 35,000  Level FlightAware
05:36AM 54.7510 -10.8190 124° Southeast 533 613 35,000  Level FlightAware
05:36AM 54.6890 -10.6640 125° Southeast 527 606 35,000  Level FlightAware
05:37AM 54.6320 -10.5230 125° Southeast 535 616 35,000  Level FlightAware
05:38AM 54.5820 -10.3990 125° Southeast 532 612 35,000  Level FlightAware
05:40AM 54.5307 -9.9690 101° East  Level Estimated
05:41AM 54.5013 -9.7284 102° East  Level Estimated
05:41AM 54.3900 -9.7180 102° East 505 581 35,000  Level FlightAware
05:42AM 54.3530 -9.5270 108° East 507 583 35,000  Level FlightAware
05:42AM 54.3220 -9.3670 108° East 511 588 35,000  Level FlightAware
05:43AM 54.2870 -9.1940 109° East 514 592 35,000  Level FlightAware
05:44AM 54.2570 -9.0410 108° East 514 592 35,000 -1,680 Level FlightAware
05:44AM 54.2418 -8.9641 108° East 494 568 33,500 -2,760 Descending FlightAware UK
05:44AM 54.2277 -8.8950 109° East 494 568 33,500 3,000 Level FlightAware UK
05:45AM 54.2210 -8.8640 109° East 511 588 35,000  Climbing FlightAware
05:45AM 54.2046 -8.7805 109° East 492 566 33,500  Descending FlightAware UK
05:45AM 54.1890 -8.7090 109° East 511 588 35,000  Climbing FlightAware
05:46AM 54.1718 -8.6199 109° East 496 571 33,500 -2,400 Descending FlightAware UK
05:46AM 54.1578 -8.5513 109° East 498 573 33,500 4,500 Level FlightAware UK
05:46AM 54.1580 -8.5530 109° East 508 585 35,000  Climbing FlightAware
05:46AM 54.1435 -8.4823 109° East 492 566 33,500 -2,700 Descending FlightAware UK
05:46AM 54.1293 -8.4143 110° East 488 562 33,500 3,060 Level FlightAware UK
05:47AM 54.1250 -8.3970 110° East 509 586 35,000  Climbing FlightAware
05:47AM 54.1057 -8.3009 110° East 496 571 33,500 -2,460 Descending FlightAware UK
05:47AM 54.0915 -8.2328 110° East 494 568 33,500 4,260 Level FlightAware UK
05:47AM 54.0930 -8.2440 110° East 508 585 35,000  Climbing FlightAware
05:48AM 54.0772 -8.1648 110° East 490 564 33,500 -2,760 Descending FlightAware UK
05:48AM 54.0630 -8.0969 110° East 486 559 33,500 3,000 Level FlightAware UK
05:48AM 54.0570 -8.0720 110° East 508 585 35,000  Climbing FlightAware
05:48AM 54.0392 -7.9839 110° East 496 571 33,500 -2,520 Descending FlightAware UK
05:49AM 54.0247 -7.9162 110° East 496 571 33,500 4,080 Level FlightAware UK
05:49AM 54.0240 -7.9150 110° East 507 583 35,000  Climbing FlightAware
05:49AM 54.0055 -7.8261 110° East 490 564 33,500 -2,400 Descending FlightAware UK
05:49AM 53.9910 -7.7584 110° East 494 568 33,500 3,600 Level FlightAware UK
05:49AM 53.9880 -7.7470 110° East 513 590 35,000  Climbing FlightAware
05:50AM 53.9716 -7.6679 110° East 496 571 33,500 -2,580 Descending FlightAware UK
05:50AM 53.9570 -7.6000 110° East 494 568 33,500 3,900 Level FlightAware UK
05:50AM 53.9550 -7.5940 110° East 513 590 35,000  Climbing FlightAware
05:50AM 53.9374 -7.5092 110° East 496 571 33,500  Descending FlightAware UK
05:51AM 53.9270 -7.4610 110° East 514 592 35,000  Climbing FlightAware
05:51AM 53.9228 -7.4412 110° East 498 573 33,500 -4,500 Descending FlightAware UK
05:51AM 53.9078 -7.3731 110° East 496 571 33,500  Level FlightAware UK
05:51AM 53.8929 -7.3054 110° East 494 568 33,500 3,600 Level FlightAware UK
05:51AM 53.8930 -7.3070 110° East 512 589 35,000  Climbing FlightAware
05:52AM 53.8729 -7.2144 110° East 500 575 33,500 -2,520 Descending FlightAware UK
05:52AM 53.8581 -7.1468 110° East 500 575 33,500 3,300 Level FlightAware UK
05:52AM 53.8520 -7.1210 110° East 510 587 35,000  Climbing FlightAware
05:52AM 53.8381 -7.0570 110° East 496 571 33,500 -2,760 Descending FlightAware UK
05:53AM 53.8233 -6.9900 110° East 498 573 33,500 3,000 Level FlightAware UK
05:53AM 53.8160 -6.9560 110° East 508 585 35,000  Climbing FlightAware
05:53AM 53.7986 -6.8787 110° East 498 573 33,500 -2,520 Descending FlightAware UK
05:54AM 53.7837 -6.8125 111° Southeast 496 571 33,500 4,080 Level FlightAware UK
05:54AM 53.7830 -6.8090 111° Southeast 506 582 35,000  Climbing FlightAware
05:54AM 53.7638 -6.7242 111° Southeast 494 568 33,500 -2,400 Descending FlightAware UK
05:54AM 53.7488 -6.6580 111° Southeast 494 568 33,500 4,500 Level FlightAware UK
05:54AM 53.7490 -6.6600 111° Southeast 506 582 35,000  Climbing FlightAware
05:55AM 53.7338 -6.5917 111° Southeast 496 571 33,500 -2,700 Descending FlightAware UK
05:55AM 53.7188 -6.5255 111° Southeast 494 568 33,500 3,060 Level FlightAware UK
05:55AM 53.7110 -6.4910 111° Southeast 508 585 35,000  Climbing FlightAware
05:55AM 53.6938 -6.4147 111° Southeast 496 571 33,500 -2,460 Descending FlightAware UK
05:56AM 53.6785 -6.3482 111° Southeast 506 582 33,500 4,260 Level FlightAware UK
05:56AM 53.6780 -6.3470 111° Southeast 509 586 35,000  Climbing FlightAware
05:56AM 53.6530 -6.2376 111° Southeast 494 568 33,500  Descending FlightAware UK
05:56AM 53.6440 -6.1990 111° Southeast 506 582 35,000  Climbing FlightAware
05:57AM 53.6275 -6.1275 111° Southeast 490 564 33,500 -2,580 Descending FlightAware UK
05:57AM 53.6122 -6.0615 111° Southeast 500 575 33,500 3,180 Level FlightAware UK
05:57AM 53.6050 -6.0290 111° Southeast 509 586 35,000  Climbing FlightAware
05:57AM 53.5864 -5.9506 111° Southeast 500 575 33,500 -2,400 Descending FlightAware UK
05:58AM 53.5710 -5.8844 111° Southeast 498 573 33,500 3,600 Level FlightAware UK
05:58AM 53.5670 -5.8680 111° Southeast 507 583 35,000 1,860 Climbing FlightAware
05:59AM 53.5340 -5.7290 112° Southeast 507 583 35,000 -1,560 Level FlightAware
05:59AM 53.5141 -5.6426 112° Southeast 496 571 33,500  Descending FlightAware UK
05:59AM 53.5040 -5.5790 112° Southeast 506 582 35,000  Climbing FlightAware
06:00AM 53.4912 -5.4586 112° Southeast 498 573 33,500  Descending FlightAware UK
06:00AM 53.4890 -5.3950 112° Southeast 505 581 35,000  Climbing FlightAware
06:00AM 53.4878 -5.3182 112° Southeast 498 573 33,500  Descending FlightAware UK
06:01AM 53.4860 -5.2620 92° East 505 581 35,000  Climbing FlightAware
06:01AM 53.4861 -5.2471 92° East 496 571 33,500 -4,740 Descending FlightAware UK
06:01AM 53.4844 -5.1768 92° East 496 571 33,500  Level FlightAware UK
06:01AM 53.4829 -5.1065 92° East 498 573 33,500 2,880 Level FlightAware UK
06:01AM 53.4820 -5.0670 92° East 506 582 35,000  Climbing FlightAware
06:02AM 53.4803 -4.9890 92° East 496 571 33,500 -2,580 Descending FlightAware UK
06:02AM 53.4786 -4.9185 92° East 498 573 33,500 3,900 Level FlightAware UK
06:02AM 53.4780 -4.9090 92° East 508 585 35,000 1,980 Climbing FlightAware
06:03AM 53.4740 -4.7530 92° East 508 585 35,000 -1,500 Level FlightAware
06:03AM 53.4702 -4.6584 92° East 500 575 33,500 -2,340 Descending FlightAware UK
06:03AM 53.4673 -4.5882 94° East 498 573 33,500 3,720 Level FlightAware UK
06:03AM 53.4670 -4.5720 94° East 506 582 35,000  Climbing FlightAware
06:04AM 53.4636 -4.4944 94° East 498 573 33,500 -2,520 Descending FlightAware UK
06:04AM 53.4608 -4.4249 94° East 498 573 33,500 4,080 Level FlightAware UK
06:04AM 53.4610 -4.4150 94° East 506 582 35,000  Climbing FlightAware
06:04AM 53.4571 -4.3305 94° East 500 575 33,500 -2,400 Descending FlightAware UK
06:05AM 53.4544 -4.2604 94° East 498 573 33,500 3,600 Level FlightAware UK
06:05AM 53.4540 -4.2570 94° East 505 581 35,000  Climbing FlightAware
06:05AM 53.4507 -4.1669 94° East 502 578 33,500 -2,580 Descending FlightAware UK
06:05AM 53.4478 -4.0968 94° East 500 575 33,500 3,900 Level FlightAware UK
06:06AM 53.4480 -4.0920 94° East 503 579 35,000  Climbing FlightAware
06:06AM 53.4429 -3.9806 94° East 498 573 33,500  Descending FlightAware UK
06:06AM 53.4420 -3.9490 94° East 502 578 35,000  Climbing FlightAware
06:07AM 53.4359 -3.8175 94° East 498 573 33,500  Descending FlightAware UK
06:07AM 53.4330 -3.7570 94° East 503 579 35,000  Climbing FlightAware
06:07AM 53.4288 -3.6547 94° East 500 575 33,500  Descending FlightAware UK
06:08AM 53.4260 -3.6020 94° East 503 579 35,000  Climbing FlightAware
06:08AM 53.4234 -3.5375 94° East 500 575 33,500 -2,340 Descending FlightAware UK
06:08AM 53.4189 -3.4445 95° East 500 575 33,500 3,000 Level FlightAware UK
06:08AM 53.4180 -3.4310 95° East 502 578 35,000  Climbing FlightAware
06:09AM 53.4145 -3.3516 95° East 498 573 33,500 -2,520 Descending FlightAware UK
06:09AM 53.4112 -3.2821 95° East 498 573 33,500 4,080 Level FlightAware UK
06:09AM 53.4110 -3.2760 95° East 501 577 35,000 3,720 Climbing FlightAware
06:09AM 53.4066 -3.1910 95° East 503 579 35,000 -2,400 Level FlightAware ADS-B
06:10AM 53.4032 -3.1198 95° East 498 573 33,500  Descending FlightAware UK
06:10AM 53.3997 -3.0539 95° East 504 580 35,000  Climbing FlightAware ADS-B
06:10AM 53.3960 -2.9795 95° East 500 575 33,500  Descending FlightAware UK
06:10AM 53.3940 -2.9420 95° East 503 579 35,000 6,420 Climbing FlightAware
06:11AM 53.3931 -2.9253 95° East 504 580 35,000 -4,740 Level FlightAware ADS-B
06:11AM 53.3899 -2.8624 95° East 500 575 33,500  Descending FlightAware UK
06:11AM 53.3867 -2.8014 95° East 504 580 35,000  Climbing FlightAware ADS-B
06:11AM 53.3826 -2.7230 95° East 500 575 33,500  Descending FlightAware UK
06:12AM 53.3798 -2.6707 95° East 503 579 35,000  Climbing FlightAware ADS-B
06:12AM 53.3765 -2.6070 95° East 498 573 33,500  Descending FlightAware UK
06:12AM 53.3730 -2.5471 95° East 503 579 35,000 1,860 Climbing FlightAware ADS-B
06:13AM 53.3663 -2.4250 95° East 503 579 35,000 -1,800 Level FlightAware ADS-B
06:13AM 53.3621 -2.3515 95° East 498 573 33,500  Descending FlightAware UK
06:13AM 53.3600 -2.3120 95° East 502 578 35,000  Climbing FlightAware
06:13AM 53.3555 -2.2360 95° East 500 575 33,500  Descending FlightAware UK
06:14AM 53.3460 -2.1320 95° East 499 574 35,000 2,760 Climbing FlightAware
06:14AM 53.3443 -2.1149 99° East 502 578 35,000  Level FlightAware ADS-B
06:14AM 53.3403 -2.0778 100° East 500 575 35,000 -2,700 Level FlightAware ADS-B
06:15AM 53.3304 -1.9854 100° East 498 573 33,500  Descending FlightAware UK
06:15AM 53.3280 -1.9608 100° East 500 575 35,000 2,040 Climbing FlightAware ADS-B
06:15AM 53.3142 -1.8262 100° East 501 577 35,000  Level FlightAware ADS-B
06:16AM 53.3025 -1.7098 99° East 502 578 35,000  Level FlightAware ADS-B
06:16AM 53.2901 -1.5854 99° East 502 578 35,000 -1,920 Level FlightAware ADS-B
06:17AM 53.2840 -1.5261 99° East 496 571 33,500 -2,760 Descending FlightAware UK
06:17AM 53.2771 -1.4574 100° East 498 573 33,500 2,040 Level FlightAware UK
06:17AM 53.2675 -1.3617 100° East 503 579 35,000 1,560 Climbing FlightAware ADS-B
06:18AM 53.2549 -1.2395 100° East 503 579 35,000 -1,740 Level FlightAware ADS-B
06:18AM 53.2464 -1.1587 100° East 498 573 33,500  Descending FlightAware UK
06:18AM 53.2425 -1.1195 100° East 504 580 35,000 2,160 Climbing FlightAware ADS-B
06:19AM 53.2302 -1.0027 100° East 504 580 35,000 -1,860 Level FlightAware ADS-B
06:19AM 53.2223 -0.9285 100° East 498 573 33,500  Descending FlightAware UK
06:20AM 53.2150 -0.8590 100° East 504 580 35,000  Climbing FlightAware
06:20AM 53.2077 -0.7920 100° East 498 573 33,500 -2,760 Descending FlightAware UK
06:20AM 53.2001 -0.7227 100° East 500 575 33,500 3,600 Level FlightAware UK
06:20AM 53.1980 -0.7080 100° East 504 580 35,000 6,420 Climbing FlightAware
06:20AM 53.1945 -0.6710 99° East 504 580 35,000  Level FlightAware ADS-B
06:21AM 53.1801 -0.5412 100° East 501 577 35,000 -1,740 Level FlightAware ADS-B
06:21AM 53.1724 -0.4710 100° East 500 575 33,500  Descending FlightAware UK
06:22AM 53.1620 -0.3800 100° East 499 574 35,000 2,700 Climbing FlightAware
06:22AM 53.1590 -0.3507 100° East 499 574 35,000 -3,960 Level FlightAware ADS-B
06:22AM 53.1523 -0.2890 100° East 502 578 33,500  Descending FlightAware UK
06:22AM 53.1453 -0.2296 100° East 498 573 35,000  Climbing FlightAware ADS-B
06:23AM 53.1367 -0.1534 100° East 496 571 33,500  Descending FlightAware UK
06:23AM 53.1310 -0.1046 100° East 497 572 35,000  Climbing FlightAware ADS-B
06:23AM 53.1213 -0.0189 100° East 496 571 33,500  Descending FlightAware UK
06:23AM 53.1170 0.0175 100° East 497 572 35,000 2,220 Climbing FlightAware ADS-B
06:24AM 53.1038 0.1314 101° East 498 573 35,000 -1,800 Level FlightAware ADS-B
06:24AM 53.0951 0.2056 101° East 498 573 33,500  Descending FlightAware UK
06:24AM 53.0906 0.2443 101° East 496 571 35,000 2,100 Climbing FlightAware ADS-B
06:25AM 53.0771 0.3593 101° East 496 571 35,000 -1,860 Level FlightAware ADS-B
06:25AM 53.0686 0.4304 101° East 494 568 33,500  Descending FlightAware UK
06:25AM 53.0616 0.4894 101° East 499 574 35,000  Climbing FlightAware ADS-B
06:26AM 53.0524 0.5658 101° East 498 573 33,500  Descending FlightAware UK
06:26AM 53.0447 0.6287 101° East 498 573 35,000  Climbing FlightAware ADS-B
06:26AM 53.0360 0.7006 101° East 498 573 33,500  Descending FlightAware UK
06:27AM 53.0286 0.7614 101° East 497 572 35,000  Climbing FlightAware ADS-B
06:27AM 53.0196 0.8348 101° East 496 571 33,500  Descending FlightAware UK
06:27AM 53.0149 0.8730 101° East 496 571 35,000  Climbing FlightAware ADS-B
06:28AM 53.0058 0.9473 101° East 496 571 33,500  Descending FlightAware UK
06:28AM 53.0007 0.9883 101° East 496 571 35,000  Climbing FlightAware ADS-B
06:28AM 52.9922 1.0580 101° East 498 573 33,500  Descending FlightAware UK
06:28AM 52.9867 1.0999 101° East 497 572 35,000  Climbing FlightAware ADS-B
06:29AM 52.9774 1.1700 101° East 504 580 33,500  Descending FlightAware UK
06:29AM 52.9721 1.2165 101° East 494 568 35,000 2,040 Climbing FlightAware ADS-B
06:29AM 52.9579 1.3277 102° East 492 566 35,000 -1,920 Level FlightAware ADS-B
06:30AM 52.9499 1.3924 102° East 496 571 33,500  Descending FlightAware UK
06:30AM 52.9417 1.4544 102° East 493 567 35,000  Climbing FlightAware ADS-B
06:30AM 52.9329 1.5246 102° East 494 568 33,500  Descending FlightAware UK
06:30AM 52.9260 1.5761 102° East 494 568 35,000  Climbing FlightAware ADS-B
06:31AM 52.9185 1.6349 102° East 496 571 33,500  Descending FlightAware UK
06:31AM 52.9112 1.6904 102° East 494 568 35,000  Climbing FlightAware ADS-B
06:31AM 52.9037 1.7463 102° East 504 580 33,500  Descending FlightAware UK
06:31AM 52.8959 1.8070 102° East 488 562 35,000  Climbing FlightAware ADS-B
06:32AM 52.8864 1.8782 102° East 498 573 33,500  Descending FlightAware UK
06:32AM 52.8770 1.9510 102° East 483 556 35,000  Climbing FlightAware
06:32AM 52.8663 2.0296 102° East 492 566 33,500  Descending FlightAware UK
06:33AM 52.8571 2.0971 102° East 483 556 35,000  Climbing FlightAware ADS-B
06:33AM 52.8399 2.2243 102° East 488 562 33,500  Descending FlightAware UK
06:33AM 52.8370 2.2450 102° East 488 562 35,000  Climbing FlightAware
06:34AM 52.8282 2.3114 102° East 492 566 33,500 -2,700 Descending FlightAware UK
06:34AM 52.8193 2.3769 103° East 494 568 33,500 3,060 Level FlightAware UK
06:34AM 52.8170 2.3950 103° East 491 565 35,000  Climbing FlightAware
06:35AM 52.8042 2.4869 103° East 496 571 33,500 -2,460 Descending FlightAware UK
06:35AM 52.7951 2.5536 103° East 496 571 33,500 3,420 Level FlightAware UK
06:35AM 52.7930 2.5680 103° East 490 564 35,000  Climbing FlightAware
06:35AM 52.7829 2.6402 103° East 496 571 33,500  Descending FlightAware UK
06:36AM 52.7720 2.7190 103° East 488 562 35,000  Climbing FlightAware
06:36AM 52.7613 2.7932 103° East 494 568 33,500 -2,520 Descending FlightAware UK
06:36AM 52.7520 2.8581 103° East 492 566 33,500  Level FlightAware UK
06:37AM 52.7361 2.9175 114° Southeast 494 568 33,500 3,060 Level FlightAware UK
06:37AM 52.7370 2.9160 114° Southeast 472 543 35,000 1,920 Climbing FlightAware
06:37AM 52.6950 3.0580 116° Southeast 478 550 35,000 -1,500 Level FlightAware
06:38AM 52.6684 3.1538 116° Southeast 492 566 33,500  Descending FlightAware UK
06:38AM 52.6650 3.1670 116° Southeast 480 552 35,000  Climbing FlightAware
06:38AM 52.6312 3.2949 116° Southeast 496 571 33,500  Descending FlightAware UK
06:39AM 52.6230 3.3270 116° Southeast 477 549 35,000  Climbing FlightAware
06:39AM 52.6002 3.4156 116° Southeast 492 566 33,500  Descending FlightAware UK
06:39AM 52.5850 3.4620 116° Southeast 469 540 35,000  Climbing FlightAware
06:40AM 52.5612 3.5275 116° Southeast 500 575 33,500  Descending FlightAware UK
06:40AM 52.5480 3.5640 116° Southeast 461 531 35,000  Climbing FlightAware
06:41AM 52.5025 3.6912 116° Southeast 490 564 33,500  Descending FlightAware UK
06:41AM 52.4890 3.7290 116° Southeast 462 532 35,000  Climbing FlightAware
06:41AM 52.4638 3.8002 116° Southeast 490 564 33,500  Descending FlightAware UK
06:41AM 52.4510 3.8380 116° Southeast 463 533 35,000  Climbing FlightAware
06:42AM 52.4187 3.9270 116° Southeast 490 564 33,500  Descending FlightAware UK
06:42AM 52.3970 3.9880 116° Southeast 461 531 35,000  Climbing FlightAware
06:43AM 52.3604 4.0888 116° Southeast 492 566 33,500  Descending FlightAware UK
06:43AM 52.3540 4.1090 116° Southeast 457 526 35,000 1,800 Climbing FlightAware
06:44AM 52.3120 4.2270 120° Southeast 456 525 35,000  Level FlightAware
06:44AM 52.2650 4.3590 120° Southeast 454 522 35,000 -1,440 Level FlightAware
06:45AM 52.2398 4.4278 120° Southeast 486 559 33,500  Descending FlightAware UK
06:45AM 52.2240 4.4740 120° Southeast 454 522 35,000  Climbing FlightAware
06:45AM 52.2025 4.5342 120° Southeast 486 559 33,500 -2,580 Descending FlightAware UK
06:46AM 52.1836 4.5880 120° Southeast 486 559 33,500 3,720 Level FlightAware UK
06:46AM 52.1810 4.5950 120° Southeast 453 521 35,000 1,800 Climbing FlightAware
06:46AM 52.1320 4.7300 121° Southeast 452 520 35,000 -1,380 Level FlightAware
06:47AM 52.1079 4.7990 121° Southeast 486 559 33,500  Descending FlightAware UK
06:47AM 52.0900 4.8430 121° Southeast 453 521 35,000 1,380 Climbing FlightAware
06:48AM 52.0450 4.9790 118° Southeast 460 529 35,000 -1,080 Level FlightAware
06:48AM 52.0065 5.1067 118° Southeast 482 555 33,500  Descending FlightAware UK
06:48AM 52.0100 5.1020 118° Southeast 461 531 35,000  Climbing FlightAware
06:49AM 51.9798 5.2010 118° Southeast 482 555 33,500  Descending FlightAware UK
06:49AM 51.9740 5.2230 118° Southeast 461 531 35,000 1,560 Climbing FlightAware
06:50AM 51.9320 5.3700 115° Southeast 466 536 35,000 -1,380 Level FlightAware
06:50AM 51.9086 5.4459 115° Southeast 484 557 33,500  Descending FlightAware UK
06:51AM 51.8980 5.4920 115° Southeast 466 536 35,000  Climbing FlightAware
06:51AM 51.8629 5.6196 115° Southeast 482 555 33,500  Descending FlightAware UK
06:51AM 51.8550 5.6380 115° Southeast 469 540 35,000  Climbing FlightAware
06:52AM 51.8411 5.6964 115° Southeast 482 555 33,500  Descending FlightAware UK
06:52AM 51.8180 5.7520 115° Southeast 462 532 35,000  Climbing FlightAware
06:52AM 51.7665 5.8436 115° Southeast 482 555 33,500  Descending FlightAware UK
06:53AM 51.7600 5.8870 115° Southeast 463 533 35,000 1,740 Climbing FlightAware
06:53AM 51.7160 5.9870 125° Southeast 464 534 35,000  Level FlightAware
06:54AM 51.6580 6.1150 126° Southeast 463 533 35,000  Level FlightAware
06:55AM 51.6040 6.2320 127° Southeast 464 534 35,000  Level FlightAware
06:55AM 51.5530 6.3440 126° Southeast 465 535 35,000  Level FlightAware
06:56AM 51.5040 6.4490 127° Southeast 465 535 35,000  Level FlightAware
06:57AM 51.4400 6.5850 127° Southeast 463 533 35,000  Level FlightAware
06:58AM 51.3910 6.6900 127° Southeast 464 534 35,000  Level FlightAware
06:58AM 51.3320 6.8140 127° Southeast 466 536 35,000  Level FlightAware
06:59AM 51.2810 6.9210 127° Southeast 468 539 35,000  Level FlightAware
07:00AM 51.2350 7.0180 127° Southeast 468 539 35,000  Level FlightAware
07:00AM 51.1710 7.1520 127° Southeast 467 537 35,000  Level FlightAware
07:01AM 51.1130 7.2730 127° Southeast 466 536 35,000  Level FlightAware
07:02AM 51.0600 7.3800 128° Southeast 466 536 35,000  Level FlightAware
07:02AM 51.0080 7.4870 128° Southeast 467 537 35,000  Level FlightAware
07:03AM 50.9460 7.6150 128° Southeast 469 540 35,000  Level FlightAware
07:04AM 50.9050 7.6990 128° Southeast 469 540 35,000  Level FlightAware
07:05AM 50.8440 7.8230 128° Southeast 470 541 35,000  Level FlightAware
07:05AM 50.7830 7.9470 128° Southeast 470 541 35,000  Level FlightAware
07:06AM 50.7300 8.0530 128° Southeast 470 541 35,000  Level FlightAware
07:07AM 50.6750 8.1630 128° Southeast 469 540 35,000  Level FlightAware
07:07AM 50.6280 8.2560 129° Southeast 469 540 35,000  Level FlightAware
07:08AM 50.5570 8.3980 128° Southeast 471 542 35,000  Level FlightAware
07:09AM 50.4970 8.5170 128° Southeast 474 545 35,000  Level FlightAware
07:09AM 50.4410 8.6220 130° Southeast 474 545 35,000  Level FlightAware
07:10AM 50.3680 8.7360 135° Southeast 473 544 35,000  Level FlightAware
07:11AM 50.3040 8.8320 136° Southeast 476 548 35,000  Level FlightAware
07:12AM 50.2400 8.9270 136° Southeast 474 545 35,000  Level FlightAware
07:12AM 50.1710 9.0300 136° Southeast 473 544 35,000  Level FlightAware
07:13AM 50.1080 9.1230 137° Southeast 473 544 35,000  Level FlightAware
07:14AM 50.0460 9.2160 136° Southeast 474 545 35,000  Level FlightAware
07:14AM 49.9740 9.3220 137° Southeast 476 548 35,000  Level FlightAware
07:15AM 49.9070 9.4200 137° Southeast 478 550 35,000  Level FlightAware
07:16AM 49.8380 9.5210 137° Southeast 478 550 35,000 420 Level FlightAware
07:16AM 49.7820 9.6030 137° Southeast 478 550 35,600 1,200 Climbing FlightAware
07:17AM 49.7080 9.7100 137° Southeast 481 554 36,600 900 Climbing FlightAware
07:18AM 49.6340 9.8160 137° Southeast 479 551 37,000 240 Climbing FlightAware
07:19AM 49.5710 9.9070 137° Southeast 476 548 37,000  Level FlightAware
07:19AM 49.4970 10.0140 137° Southeast 474 545 37,000  Level FlightAware
07:20AM 49.4350 10.1090 135° Southeast 478 550 37,000  Level FlightAware
07:21AM 49.3940 10.2260 118° Southeast 484 557 37,000  Level FlightAware
07:21AM 49.3480 10.3470 120° Southeast 484 557 37,000  Level FlightAware
07:22AM 49.2980 10.4770 120° Southeast 481 554 37,000  Level FlightAware
07:23AM 49.2520 10.6050 119° Southeast 482 555 37,000  Level FlightAware
07:23AM 49.2080 10.7290 118° Southeast 484 557 37,000  Level FlightAware
07:24AM 49.1640 10.8500 119° Southeast 485 558 37,000  Level FlightAware
07:25AM 49.1200 10.9730 119° Southeast 486 559 37,000  Level FlightAware
07:26AM 49.0600 11.1400 119° Southeast 483 556 37,000  Level FlightAware
07:26AM 49.0150 11.2650 119° Southeast 484 557 37,000  Level FlightAware
07:27AM 48.9670 11.3970 119° Southeast 484 557 37,000  Level FlightAware
07:28AM 48.9240 11.5150 119° Southeast 486 559 37,000  Level FlightAware
07:29AM 48.8790 11.6400 119° Southeast 491 565 37,000  Level FlightAware
07:29AM 48.8300 11.7720 119° Southeast 491 565 37,000  Level FlightAware
07:30AM 48.7860 11.8930 119° Southeast 490 564 37,000  Level FlightAware
07:31AM 48.7370 12.0240 120° Southeast 492 566 37,000  Level FlightAware
07:31AM 48.6910 12.1480 119° Southeast 493 567 37,000  Level FlightAware
07:32AM 48.6470 12.2640 120° Southeast 493 567 37,000  Level FlightAware
07:33AM 48.5960 12.4010 119° Southeast 492 566 37,000  Level FlightAware
07:33AM 48.5500 12.5220 120° Southeast 493 567 37,000  Level FlightAware
07:34AM 48.5050 12.6390 120° Southeast 493 567 37,000  Level FlightAware
07:35AM 48.4530 12.7750 120° Southeast 494 568 37,000  Level FlightAware
07:36AM 48.4090 12.8900 120° Southeast 494 568 37,000  Level FlightAware
07:36AM 48.3680 13.0220 115° Southeast 494 568 37,000  Level FlightAware
07:37AM 48.3260 13.1610 114° Southeast 496 571 37,000  Level FlightAware
07:38AM 48.2910 13.2760 115° Southeast 494 568 37,000  Level FlightAware
07:38AM 48.2450 13.4340 114° Southeast 497 572 37,000  Level FlightAware
07:39AM 48.2030 13.5750 114° Southeast 494 568 37,000  Level FlightAware
07:40AM 48.1660 13.6980 114° Southeast 494 568 37,000  Level FlightAware
07:41AM 48.1220 13.8420 115° Southeast 494 568 37,000  Level FlightAware
07:41AM 48.0900 13.9480 114° Southeast 495 570 37,000  Level FlightAware
07:42AM 48.0430 14.1040 114° Southeast 497 572 37,000  Level FlightAware
07:43AM 48.0060 14.2250 115° Southeast 497 572 37,000  Level FlightAware
07:43AM 47.9660 14.3550 115° Southeast 497 572 37,000  Level FlightAware
07:44AM 47.9240 14.4900 115° Southeast 497 572 37,000  Level FlightAware
07:45AM 47.8870 14.6100 115° Southeast 495 570 37,000  Level FlightAware
07:45AM 47.8420 14.7550 115° Southeast 494 568 37,000  Level FlightAware
07:46AM 47.8020 14.8800 115° Southeast 499 574 37,000  Level FlightAware
07:47AM 47.7630 15.0050 115° Southeast 501 577 37,000  Level FlightAware
07:48AM 47.7200 15.1420 115° Southeast 498 573 37,000  Level FlightAware
07:48AM 47.6800 15.2650 116° Southeast 498 573 37,000  Level FlightAware
07:49AM 47.6370 15.3990 115° Southeast 500 575 37,000  Level FlightAware
07:50AM 47.5970 15.5240 115° Southeast 504 580 37,000  Level FlightAware
07:50AM 47.5560 15.6520 115° Southeast 504 580 37,000  Level FlightAware
07:51AM 47.5100 15.7940 116° Southeast 505 581 37,000  Level FlightAware
07:52AM 47.4690 15.9200 116° Southeast 504 580 37,000  Level FlightAware
07:52AM 47.4290 16.0410 116° Southeast 505 581 37,000  Level FlightAware
07:53AM 47.3820 16.1820 116° Southeast 503 579 37,000  Level FlightAware
07:54AM 47.3430 16.3010 116° Southeast 504 580 37,000  Level FlightAware
07:55AM 47.2950 16.4390 117° Southeast 503 579 37,000  Level FlightAware
07:55AM 47.2410 16.5550 124° Southeast 501 577 37,000  Level FlightAware
07:56AM 47.1790 16.6720 128° Southeast 501 577 37,000  Level FlightAware
07:57AM 47.1230 16.7780 128° Southeast 502 578 37,000  Level FlightAware
07:57AM 47.0690 16.8780 128° Southeast 503 579 37,000  Level FlightAware
07:58AM 47.0070 16.9940 128° Southeast 503 579 37,000  Level FlightAware
07:59AM 46.9520 17.0970 128° Southeast 498 573 37,000  Level FlightAware
07:59AM 46.8900 17.2110 128° Southeast 498 573 37,000  Level FlightAware
08:00AM 46.8210 17.3390 128° Southeast 505 581 37,000  Level FlightAware
08:01AM 46.7620 17.4470 129° Southeast 505 581 37,000  Level FlightAware
08:01AM 46.7030 17.5550 129° Southeast 506 582 37,000  Level FlightAware
08:02AM 46.6370 17.6760 128° Southeast 505 581 37,000  Level FlightAware
08:03AM 46.5820 17.7750 129° Southeast 505 581 37,000  Level FlightAware
08:04AM 46.5120 17.9010 129° Southeast 503 579 37,000  Level FlightAware
08:04AM 46.4550 18.0040 129° Southeast 503 579 37,000  Level FlightAware
08:05AM 46.3810 18.1360 129° Southeast 499 574 37,000  Level FlightAware
08:06AM 46.3000 18.2820 129° Southeast 506 582 37,000  Level FlightAware
08:07AM 46.2430 18.3830 129° Southeast 506 582 37,000  Level FlightAware
08:07AM 46.1810 18.4920 129° Southeast 507 583 37,000  Level FlightAware
08:08AM 46.0950 18.6430 129° Southeast 506 582 37,000  Level FlightAware
08:09AM 46.0280 18.7610 129° Southeast 509 586 37,000  Level FlightAware
08:10AM 45.9670 18.8680 129° Southeast 508 585 37,000  Level FlightAware
08:11AM 45.9020 18.9860 128° Southeast 503 579 37,000  Level FlightAware
08:11AM 45.8450 19.0950 127° Southeast 511 588 37,000  Level FlightAware
08:12AM 45.7880 19.2030 127° Southeast 508 585 37,000  Level FlightAware
08:13AM 45.7300 19.3100 128° Southeast 509 586 37,000  Level FlightAware
08:13AM 45.6670 19.4260 128° Southeast 511 588 37,000  Level FlightAware
08:14AM 45.5930 19.5610 128° Southeast 510 587 37,000  Level FlightAware
08:15AM 45.5350 19.6660 128° Southeast 509 586 37,000  Level FlightAware
08:16AM 45.4690 19.7860 128° Southeast 516 594 37,000  Level FlightAware
08:16AM 45.4100 19.8930 128° Southeast 516 594 37,000  Level FlightAware
08:17AM 45.3510 19.9990 128° Southeast 516 594 37,000  Level FlightAware
08:18AM 45.2840 20.1210 128° Southeast 516 594 37,000  Level FlightAware
08:18AM 45.2260 20.2240 129° Southeast 517 595 37,000  Level FlightAware
08:19AM 45.1580 20.3460 128° Southeast 517 595 37,000  Level FlightAware
08:20AM 45.0990 20.4500 129° Southeast 518 596 37,000  Level FlightAware
08:20AM 45.0390 20.5570 128° Southeast 518 596 37,000  Level FlightAware
08:21AM 44.9710 20.6760 129° Southeast 517 595 37,000  Level FlightAware
08:22AM 44.9120 20.7810 128° Southeast 516 594 37,000  Level FlightAware
08:23AM 44.8430 20.9010 129° Southeast 514 592 37,000  Level FlightAware
08:23AM 44.7830 21.0050 129° Southeast 514 592 37,000  Level FlightAware
08:24AM 44.7170 21.1210 129° Southeast 514 592 37,000  Level FlightAware
08:25AM 44.6560 21.2250 129° Southeast 515 593 37,000  Level FlightAware
08:25AM 44.5970 21.3270 129° Southeast 516 594 37,000  Level FlightAware
08:26AM 44.5280 21.4460 129° Southeast 517 595 37,000  Level FlightAware
08:27AM 44.4670 21.5500 129° Southeast 518 596 37,000  Level FlightAware
08:27AM 44.4060 21.6540 129° Southeast 517 595 37,000  Level FlightAware
08:28AM 44.3390 21.7670 130° Southeast 519 597 37,000  Level FlightAware
08:29AM 44.2790 21.8690 129° Southeast 517 595 37,000  Level FlightAware
08:30AM 44.2090 21.9880 129° Southeast 516 594 37,000  Level FlightAware
08:30AM 44.1470 22.0910 130° Southeast 515 593 37,000  Level FlightAware
08:31AM 44.0870 22.1910 130° Southeast 516 594 37,000  Level FlightAware
08:32AM 44.0210 22.3060 129° Southeast 517 595 37,000  Level FlightAware
08:32AM 43.9700 22.4130 123° Southeast 515 593 37,000  Level FlightAware
08:33AM 43.9070 22.5430 124° Southeast 516 594 37,000  Level FlightAware
08:34AM 43.8550 22.6500 124° Southeast 516 594 37,000  Level FlightAware
08:34AM 43.8020 22.7630 123° Southeast 516 594 37,000  Level FlightAware
08:35AM 43.7440 22.8850 123° Southeast 515 593 37,000  Level FlightAware
08:36AM 43.6900 22.9960 124° Southeast 515 593 37,000  Level FlightAware
08:37AM 43.6420 23.0950 124° Southeast 513 590 37,000  Level FlightAware
08:37AM 43.5860 23.2120 123° Southeast 514 592 37,000  Level FlightAware
08:38AM 43.5310 23.3270 123° Southeast 516 594 37,000  Level FlightAware
08:39AM 43.4730 23.4460 124° Southeast 516 594 37,000  Level FlightAware
08:39AM 43.4200 23.5540 124° Southeast 517 595 37,000  Level FlightAware
08:40AM 43.3660 23.6640 124° Southeast 519 597 37,000  Level FlightAware
08:41AM 43.3050 23.7900 124° Southeast 520 598 37,000  Level FlightAware
08:41AM 43.2510 23.8970 125° Southeast 520 598 37,000  Level FlightAware
08:42AM 43.1900 24.0210 124° Southeast 520 598 37,000  Level FlightAware
08:43AM 43.1370 24.1280 124° Southeast 518 596 37,000  Level FlightAware
08:43AM 43.0830 24.2370 124° Southeast 516 594 37,000  Level FlightAware
08:44AM 43.0230 24.3560 125° Southeast 517 595 37,000  Level FlightAware
08:45AM 42.9620 24.4790 124° Southeast 517 595 37,000  Level FlightAware
08:46AM 42.9080 24.5860 125° Southeast 517 595 37,000  Level FlightAware
08:46AM 42.8530 24.6940 125° Southeast 518 596 37,000  Level FlightAware
08:47AM 42.7910 24.8150 125° Southeast 517 595 37,000  Level FlightAware
08:48AM 42.7380 24.9200 124° Southeast 517 595 37,000  Level FlightAware
08:48AM 42.6830 25.0280 125° Southeast 520 598 37,000  Level FlightAware
08:49AM 42.6220 25.1460 125° Southeast 518 596 37,000  Level FlightAware
08:50AM 42.5780 25.2300 125° Southeast 521 600 37,000  Level FlightAware
08:51AM 42.5010 25.3800 125° Southeast 521 600 37,000  Level FlightAware
08:51AM 42.4320 25.5120 125° Southeast 520 598 37,000  Level FlightAware
08:52AM 42.3750 25.6220 125° Southeast 517 595 37,000  Level FlightAware
08:53AM 42.3250 25.7160 126° Southeast 515 593 37,000  Level FlightAware
08:54AM 42.2440 25.8710 125° Southeast 515 593 37,000  Level FlightAware
08:54AM 42.1800 25.9920 125° Southeast 515 593 37,000  Level FlightAware
08:55AM 42.1230 26.1000 125° Southeast 517 595 37,000 -720 Level FlightAware
08:56AM 42.0730 26.1940 126° Southeast 509 586 36,100 -1,620 Descending FlightAware
08:57AM 41.9960 26.3380 126° Southeast 500 575 34,300 -1,800 Descending FlightAware
08:58AM 42.0240 26.2850 305° West 499 574 33,000 -960 Descending FlightAware
08:58AM 41.8840 26.5460 126° Southeast 502 578 33,000 -120 Level FlightAware
08:59AM 41.8240 26.6600 125° Southeast 501 577 32,900 -720 Descending FlightAware
09:00AM 41.7720 26.7610 125° Southeast 492 566 32,100 -2,700 Descending FlightAware
09:00AM 41.7090 26.8830 125° Southeast 507 583 29,100 -3,000 Descending FlightAware
09:01AM 41.6560 26.9860 125° Southeast 486 559 27,900 -1,920 Descending FlightAware
09:02AM 41.6090 27.0770 125° Southeast 473 544 26,600 -1,500 Descending FlightAware
09:03AM 41.5120 27.2610 125° Southeast 456 525 25,000 -780 Descending FlightAware
09:04AM 41.4480 27.3830 125° Southeast 460 529 25,000  Level FlightAware
09:05AM 41.3940 27.4830 126° Southeast 446 513 25,000 -960 Level FlightAware
09:05AM 41.3460 27.5710 126° Southeast 436 502 23,700 -2,040 Descending FlightAware
09:06AM 41.2870 27.6270 144° Southeast 429 494 22,500 -1,800 Descending FlightAware
09:07AM 41.1970 27.6730 159° South 438 504 21,200 -1,080 Descending FlightAware
09:07AM 41.1380 27.7260 146° Southeast 432 497 21,000 -1,140 Descending FlightAware
09:08AM 41.1240 27.7760 110° East 432 497 20,200 -1,620 Descending FlightAware
09:08AM 41.0800 27.8760 120° Southeast 429 494 19,400 -1,200 Descending FlightAware
09:09AM 41.0370 27.9760 120° Southeast 422 486 18,500 -1,560 Descending FlightAware
09:10AM 40.9980 28.0660 120° Southeast 414 476 17,200 -1,800 Descending FlightAware
09:10AM 40.9770 28.1730 105° East 408 470 16,000 -900 Descending FlightAware
09:11AM 40.9850 28.2720 84° East 379 436 16,000 -240 Level FlightAware
09:12AM 40.9920 28.3590 84° East 348 400 15,700 -660 Descending FlightAware
09:12AM 41.0000 28.4530 84° East 329 379 15,100 -1,020 Descending FlightAware
09:13AM 41.0070 28.5270 83° East 322 371 14,300 -1,320 Descending FlightAware
09:14AM 41.0190 28.6170 80° East 316 364 13,300 -1,320 Descending FlightAware
09:15AM 41.0310 28.6900 78° East 312 359 12,500 -1,320 Descending FlightAware
09:15AM 41.0580 28.7580 62° Northeast 303 349 11,600 -1,380 Descending FlightAware
09:16AM 41.0920 28.8300 58° Northeast 295 339 10,600 -1,380 Descending FlightAware
09:17AM 41.1200 28.8890 58° Northeast 290 334 9,700 -1,560 Descending FlightAware
09:17AM 41.1310 28.9140 60° Northeast 289 333 9,200 -1,200 Descending FlightAware
09:17AM 41.1480 28.9510 59° Northeast 266 306 8,900 -1,140 Descending FlightAware
09:18AM 41.1640 28.9850 58° Northeast 255 293 8,200 -1,740 Descending FlightAware
09:18AM 41.1840 29.0300 59° Northeast 254 292 7,200 -1,740 Descending FlightAware
09:19AM 41.1930 29.0500 59° Northeast 249 287 6,900 -1,500 Descending FlightAware
09:19AM 41.2070 29.0810 59° Northeast 239 275 6,200 -1,320 Descending FlightAware
09:19AM 41.2210 29.1110 58° Northeast 243 280 5,800 -1,080 Descending FlightAware
09:20AM 41.2380 29.1470 58° Northeast 236 272 5,300 -1,080 Descending FlightAware
09:20AM 41.2430 29.1810 79° East 242 278 4,900 -1,080 Descending FlightAware
09:21AM 41.2270 29.2100 126° Southeast 248 285 4,400 -1,200 Descending FlightAware
09:21AM 41.1820 29.2010 189° South 236 272 3,600 -780 Descending FlightAware
09:22AM 41.1600 29.1810 214° Southwest 236 272 3,600 -480 Level FlightAware
09:23AM 41.1160 29.1350 218° Southwest 233 268 3,000 -300 Descending FlightAware
09:23AM 41.0890 29.0780 238° Southwest 236 272 3,100  Climbing FlightAware
09:24AM 41.0700 29.0350 240° Southwest 232 267 3,000 -120 Descending FlightAware
09:24AM 41.0590 29.0120 238° Southwest 232 267 3,000 -360 Level FlightAware
09:25AM 41.0420 28.9760 238° Southwest 200 230 2,700 -720 Descending FlightAware
09:25AM 41.0370 28.9650 239° Southwest 197 227 2,500 -1,080 Descending FlightAware
09:25AM 41.0230 28.9350 238° Southwest 189 217 2,000 -1,140 Descending FlightAware
09:26AM 41.0100 28.9060 239° Southwest 189 217 1,400 -660 Descending FlightAware
09:26AM 40.9990 28.8830 238° Southwest 189 217 1,400  Level FlightAware
09:29AM 40.9769 28.8211 128° Southeast  Level Estimated
09:30AM 40.9769 28.8211 128° Southeast  Level Estimated
09:31AM 40.9769 28.8211 128° Southeast  Level Estimated
09:32AM 40.9769 28.8211 128° Southeast  Level Estimated
09:33AM 40.9769 28.8211 128° Southeast  Level Estimated
09:34AM 40.9769 28.8211 128° Southeast  Level Estimated
09:35AM 40.9769 28.8211 128° Southeast  Level Estimated
09:36AM 40.9769 28.8211 128° Southeast  Level Estimated